Time;durP1;ratioP1;P1;durP2;ratioP2;P2;SDS_P1;SDS_P2;PMS_P1;PMS_P2;Temp;Humidity;BMP_temperature;BMP_pressure;BME280_temperature;BME280_humidity;BME280_pressure;Samples;Min_cycle;Max_cycle;Signal;HPM_P1;HPM_P2
2022/04/02 00:00:56;;;;;;;14.82;7.80;;;4.20;99.90;;;;;;5005198;28;20021;-69
2022/04/02 00:03:22;;;;;;;13.90;7.78;;;4.10;99.90;;;;;;5022907;28;20018;-70
2022/04/02 00:05:48;;;;;;;12.57;7.68;;;4.20;99.90;;;;;;5022596;28;20105;-69
2022/04/02 00:08:14;;;;;;;12.52;7.25;;;4.20;99.90;;;;;;5022311;28;20309;-70
2022/04/02 00:10:40;;;;;;;11.13;7.25;;;4.20;99.90;;;;;;5022394;28;20109;-70
2022/04/02 00:13:06;;;;;;;12.50;6.80;;;4.20;99.90;;;;;;5006321;28;20072;-70
2022/04/02 00:15:32;;;;;;;9.50;6.85;;;4.20;99.90;;;;;;5022415;28;20021;-71
2022/04/02 00:17:57;;;;;;;10.13;6.63;;;4.10;99.90;;;;;;5006200;28;20029;-72
2022/04/02 00:20:23;;;;;;;8.32;6.53;;;4.00;99.90;;;;;;5022532;28;20296;-69
2022/04/02 00:25:34;;;;;;;10.98;6.75;;;3.80;99.90;;;;;;5009022;28;20099;-69
2022/04/02 00:28:00;;;;;;;11.98;7.32;;;3.70;99.90;;;;;;5023467;28;20025;-69
2022/04/02 00:30:26;;;;;;;10.60;7.57;;;3.70;99.90;;;;;;5006172;28;20017;-69
2022/04/02 00:32:51;;;;;;;13.50;7.30;;;3.60;99.90;;;;;;5022466;28;20349;-70
2022/04/02 00:35:17;;;;;;;12.32;7.40;;;3.60;99.90;;;;;;5020539;28;20202;-69
2022/04/02 00:37:43;;;;;;;10.70;6.65;;;3.60;99.90;;;;;;5023540;28;20332;-69
2022/04/02 00:40:09;;;;;;;12.20;7.00;;;3.60;99.90;;;;;;5005850;28;20056;-69
2022/04/02 00:42:35;;;;;;;9.73;6.68;;;3.50;99.90;;;;;;5021953;28;20026;-69
2022/04/02 00:45:00;;;;;;;9.85;6.70;;;3.50;99.90;;;;;;5005412;28;20069;-70
2022/04/02 00:47:26;;;;;;;12.40;7.55;;;3.50;99.90;;;;;;5022296;28;20112;-69
2022/04/02 00:49:53;;;;;;;12.13;7.63;;;3.50;99.90;;;;;;5005989;28;20186;-70
2022/04/02 00:52:20;;;;;;;10.95;7.47;;;3.40;99.90;;;;;;5021746;28;20049;-69
2022/04/02 00:54:49;;;;;;;12.95;7.72;;;3.40;99.90;;;;;;5022152;28;20037;-70
2022/04/02 00:57:15;;;;;;;10.07;7.38;;;3.30;99.90;;;;;;4989912;28;20049;-70
2022/04/02 00:59:41;;;;;;;11.95;7.88;;;3.20;99.90;;;;;;5021780;28;20080;-69
2022/04/02 01:02:07;;;;;;;10.50;7.70;;;3.20;99.90;;;;;;5005921;28;20018;-69
2022/04/02 01:04:32;;;;;;;11.60;7.78;;;3.10;99.90;;;;;;4989451;28;20057;-69
2022/04/02 01:06:59;;;;;;;18.73;8.10;;;3.10;99.90;;;;;;5005416;28;20033;-70
2022/04/02 01:09:25;;;;;;;17.67;8.00;;;3.10;99.90;;;;;;5021865;28;20301;-71
2022/04/02 01:11:54;;;;;;;15.80;8.15;;;3.20;99.90;;;;;;5006163;28;20025;-70
2022/04/02 01:14:20;;;;;;;14.32;8.27;;;3.30;99.90;;;;;;4993820;28;20034;-70
2022/04/02 01:16:46;;;;;;;17.02;8.30;;;3.30;99.90;;;;;;5026522;28;20367;-71
2022/04/02 01:19:11;;;;;;;14.00;7.95;;;3.30;99.90;;;;;;5009183;28;20029;-72
2022/04/02 01:21:38;;;;;;;11.98;7.38;;;3.40;99.90;;;;;;5025601;28;20451;-72
2022/04/02 01:24:04;;;;;;;11.73;7.13;;;3.50;99.90;;;;;;5022150;28;20217;-71
2022/04/02 01:26:30;;;;;;;12.60;6.82;;;3.50;99.90;;;;;;5026584;28;20079;-71
2022/04/02 01:28:58;;;;;;;9.35;6.65;;;3.50;99.90;;;;;;5026487;28;20348;-70
2022/04/02 01:31:25;;;;;;;8.93;7.07;;;3.50;99.90;;;;;;5008803;28;20026;-72
2022/04/02 01:33:52;;;;;;;9.25;6.70;;;3.50;99.90;;;;;;5025114;28;20029;-70
2022/04/02 01:36:18;;;;;;;10.80;6.80;;;3.50;99.90;;;;;;5007899;28;20021;-71
2022/04/02 01:38:45;;;;;;;17.00;7.70;;;3.40;99.90;;;;;;5026579;28;20067;-71
2022/04/02 01:41:11;;;;;;;11.70;7.65;;;3.30;99.90;;;;;;5024573;28;20053;-68
2022/04/02 01:43:36;;;;;;;10.70;6.93;;;3.20;99.90;;;;;;5008916;28;20021;-71
2022/04/02 01:46:04;;;;;;;9.05;6.50;;;3.10;99.90;;;;;;5025169;28;20556;-69
2022/04/02 01:48:30;;;;;;;11.52;6.95;;;3.00;99.90;;;;;;5025101;28;20308;-70
2022/04/02 01:50:57;;;;;;;11.77;7.05;;;3.00;99.90;;;;;;5025156;28;20244;-70
2022/04/02 01:53:25;;;;;;;10.50;6.38;;;2.90;99.90;;;;;;5024711;28;20022;-71
2022/04/02 01:55:52;;;;;;;10.35;6.75;;;2.80;99.90;;;;;;5024846;28;20029;-70
2022/04/02 01:58:18;;;;;;;12.18;7.22;;;2.80;99.90;;;;;;5025076;28;20029;-70
2022/04/02 02:00:45;;;;;;;10.10;6.75;;;2.70;99.90;;;;;;5025780;28;20256;-70
2022/04/02 02:03:11;;;;;;;10.55;6.88;;;2.70;99.90;;;;;;5008688;28;20024;-70
2022/04/02 02:05:37;;;;;;;12.45;6.97;;;2.70;99.90;;;;;;5025514;28;20025;-70
2022/04/02 02:08:03;;;;;;;10.27;6.65;;;2.70;99.90;;;;;;5024925;28;20370;-70
2022/04/02 02:10:30;;;;;;;11.65;6.78;;;2.60;99.90;;;;;;5007813;28;20094;-69
2022/04/02 02:12:55;;;;;;;10.80;6.47;;;2.50;99.90;;;;;;5025953;28;20018;-68
2022/04/02 02:15:22;;;;;;;14.52;6.53;;;2.50;99.90;;;;;;5024656;28;20343;-71
2022/04/02 02:17:49;;;;;;;13.23;7.07;;;2.50;99.90;;;;;;5024622;28;20352;-71
2022/04/02 02:20:16;;;;;;;12.85;6.70;;;2.50;99.90;;;;;;5024144;28;20044;-71
2022/04/02 02:22:43;;;;;;;10.25;6.70;;;2.40;99.90;;;;;;5003030;28;20031;-72
2022/04/02 02:25:11;;;;;;;10.90;6.55;;;2.40;99.90;;;;;;5004168;28;20100;-70
2022/04/02 02:27:38;;;;;;;12.07;7.40;;;2.30;99.90;;;;;;4988664;28;20022;-70
2022/04/02 02:30:06;;;;;;;12.85;7.28;;;2.30;99.90;;;;;;5004488;28;20089;-70
2022/04/02 02:32:36;;;;;;;11.15;6.93;;;2.30;99.90;;;;;;4988784;28;20037;-72
2022/04/02 02:37:49;;;;;;;11.90;7.15;;;2.30;99.90;;;;;;5023086;28;20076;-71
2022/04/02 02:40:15;;;;;;;10.85;6.82;;;2.20;99.90;;;;;;4990911;28;20320;-71
2022/04/02 02:42:41;;;;;;;12.85;7.22;;;2.30;99.90;;;;;;5024024;28;20128;-71
2022/04/02 02:45:07;;;;;;;10.95;6.63;;;2.20;99.90;;;;;;5023295;28;20052;-71
2022/04/02 02:47:33;;;;;;;12.00;7.07;;;2.20;99.90;;;;;;5007649;28;20332;-71
2022/04/02 02:50:00;;;;;;;12.18;6.93;;;2.10;99.90;;;;;;5007649;28;20041;-71
2022/04/02 02:52:27;;;;;;;11.77;7.25;;;2.10;99.90;;;;;;5007662;28;20028;-71
2022/04/02 02:54:53;;;;;;;12.35;7.25;;;2.00;99.90;;;;;;4991041;28;20018;-72
2022/04/02 02:57:19;;;;;;;10.48;7.15;;;2.00;99.90;;;;;;5023859;28;20245;-70
2022/04/02 02:59:44;;;;;;;11.02;7.53;;;2.00;99.90;;;;;;5023466;28;20071;-70
2022/04/02 03:02:11;;;;;;;13.40;7.65;;;2.00;99.90;;;;;;5023734;28;20022;-70
2022/04/02 03:04:37;;;;;;;8.95;6.75;;;2.00;99.90;;;;;;5023742;28;20030;-70
2022/04/02 03:07:03;;;;;;;9.63;6.43;;;2.00;99.90;;;;;;5024845;28;20240;-70
2022/04/02 03:09:29;;;;;;;9.32;6.43;;;2.10;99.90;;;;;;5023139;28;20096;-71
2022/04/02 03:11:55;;;;;;;9.73;6.40;;;2.00;99.90;;;;;;5023083;28;20084;-71
2022/04/02 03:14:21;;;;;;;10.65;6.20;;;2.00;99.90;;;;;;5007258;28;20022;-70
2022/04/02 03:16:47;;;;;;;9.75;6.93;;;2.00;99.90;;;;;;5007114;28;20186;-71
2022/04/02 03:19:13;;;;;;;11.73;6.70;;;2.00;99.90;;;;;;5023515;28;20056;-70
2022/04/02 03:21:39;;;;;;;10.85;7.00;;;2.00;99.90;;;;;;5006817;28;20022;-71
2022/04/02 03:24:05;;;;;;;10.73;7.15;;;2.00;99.90;;;;;;5023292;28;20076;-70
2022/04/02 03:26:31;;;;;;;11.13;7.40;;;1.90;99.90;;;;;;5006839;28;20048;-69
2022/04/02 03:28:57;;;;;;;10.55;7.70;;;1.90;99.90;;;;;;5024374;28;20025;-68
2022/04/02 03:31:23;;;;;;;13.80;7.40;;;1.80;99.90;;;;;;5022780;28;20060;-69
2022/04/02 03:33:49;;;;;;;11.90;7.75;;;1.70;99.90;;;;;;5022878;28;20017;-69
2022/04/02 03:36:15;;;;;;;15.40;8.05;;;1.70;99.90;;;;;;5022841;28;20037;-70
2022/04/02 03:38:41;;;;;;;14.95;8.75;;;1.70;99.90;;;;;;5005204;28;20317;-70
2022/04/02 03:41:07;;;;;;;17.23;9.55;;;1.70;99.90;;;;;;5005864;28;20022;-69
2022/04/02 03:43:34;;;;;;;17.63;10.20;;;1.70;99.90;;;;;;5023105;28;20211;-70
2022/04/02 03:48:46;;;;;;;18.27;10.75;;;1.70;99.90;;;;;;5009518;28;20014;-69
2022/04/02 03:51:11;;;;;;;19.00;10.20;;;1.70;99.90;;;;;;5023828;28;20056;-69
2022/04/02 03:53:37;;;;;;;19.83;10.77;;;1.70;99.90;;;;;;5006434;28;20343;-69
2022/04/02 03:56:03;;;;;;;18.45;10.45;;;1.70;99.90;;;;;;5024198;28;20076;-69
2022/04/02 03:58:31;;;;;;;15.35;10.15;;;1.60;99.90;;;;;;5006643;28;20213;-69
2022/04/02 04:00:57;;;;;;;16.17;10.48;;;1.60;99.90;;;;;;5022577;28;20022;-70
2022/04/02 04:03:23;;;;;;;15.18;9.98;;;1.60;99.90;;;;;;5022613;28;20029;-69
2022/04/02 04:05:49;;;;;;;18.95;10.38;;;1.60;99.90;;;;;;5022399;28;20029;-70
2022/04/02 04:08:14;;;;;;;16.13;10.07;;;1.60;99.90;;;;;;5022782;28;20040;-69
2022/04/02 04:10:41;;;;;;;14.43;9.35;;;1.60;99.90;;;;;;5023255;28;20049;-70
2022/04/02 04:13:07;;;;;;;16.45;9.20;;;1.70;99.90;;;;;;5022344;28;20026;-69
2022/04/02 04:15:33;;;;;;;21.77;10.02;;;1.70;99.90;;;;;;5022655;28;20028;-70
2022/04/02 04:17:59;;;;;;;17.13;9.35;;;1.70;99.90;;;;;;5006124;28;20070;-70
2022/04/02 04:20:25;;;;;;;17.38;10.10;;;1.70;99.90;;;;;;5022635;28;20197;-69
2022/04/02 04:22:52;;;;;;;15.40;9.77;;;1.80;99.90;;;;;;5009039;28;20100;-69
2022/04/02 04:25:17;;;;;;;17.13;10.30;;;1.80;99.90;;;;;;5022433;28;20045;-69
2022/04/02 04:27:43;;;;;;;19.98;9.68;;;1.80;99.90;;;;;;5022439;28;20034;-71
2022/04/02 04:30:10;;;;;;;16.13;9.38;;;1.80;99.90;;;;;;5022492;28;20069;-69
2022/04/02 04:32:35;;;;;;;15.38;9.40;;;1.80;99.90;;;;;;5022300;28;20029;-69
2022/04/02 04:35:02;;;;;;;14.75;8.85;;;1.80;99.90;;;;;;5005977;28;20065;-70
2022/04/02 04:37:28;;;;;;;15.15;9.63;;;1.80;99.90;;;;;;5004480;28;20377;-71
2022/04/02 04:39:54;;;;;;;16.08;9.43;;;1.80;99.90;;;;;;4989678;28;20086;-70
2022/04/02 04:42:21;;;;;;;24.10;9.85;;;1.70;99.90;;;;;;5005235;28;20033;-69
2022/04/02 04:44:47;;;;;;;16.00;9.45;;;1.70;99.90;;;;;;4989787;28;20018;-70
2022/04/02 04:47:13;;;;;;;21.33;9.73;;;1.70;99.90;;;;;;5011206;28;20030;-69
2022/04/02 04:49:39;;;;;;;17.55;9.85;;;1.70;99.90;;;;;;5006332;28;20029;-69
2022/04/02 04:52:05;;;;;;;16.10;9.38;;;1.80;99.90;;;;;;5007633;28;20034;-69
2022/04/02 04:54:31;;;;;;;14.68;8.90;;;1.80;99.90;;;;;;5022690;28;20026;-69
2022/04/02 04:56:57;;;;;;;16.23;10.13;;;1.70;99.90;;;;;;5006578;28;20328;-70
2022/04/02 04:59:23;;;;;;;17.38;10.20;;;1.60;99.90;;;;;;5006358;28;20320;-69
2022/04/02 05:01:48;;;;;;;19.20;11.32;;;1.60;99.90;;;;;;5006031;28;20022;-71
2022/04/02 05:04:14;;;;;;;17.88;9.38;;;1.50;99.90;;;;;;5006278;28;20029;-69
2022/04/02 05:06:41;;;;;;;17.60;9.45;;;1.50;99.90;;;;;;5006262;28;20068;-70
2022/04/02 05:09:07;;;;;;;15.98;8.73;;;1.50;99.90;;;;;;5006122;28;20052;-69
2022/04/02 05:11:33;;;;;;;19.63;10.27;;;1.50;99.90;;;;;;5022264;28;20414;-70
2022/04/02 05:13:59;;;;;;;20.30;10.23;;;1.50;99.90;;;;;;5007083;28;20026;-69
2022/04/02 05:16:26;;;;;;;18.77;10.43;;;1.50;99.90;;;;;;5006258;28;20033;-69
2022/04/02 05:18:52;;;;;;;14.40;9.40;;;1.50;99.90;;;;;;5022552;28;20030;-70
2022/04/02 05:21:18;;;;;;;19.10;9.82;;;1.40;99.90;;;;;;4989814;28;20019;-70
2022/04/02 05:23:44;;;;;;;18.27;9.75;;;1.30;99.90;;;;;;5035299;28;20312;-70
2022/04/02 05:26:10;;;;;;;14.25;9.02;;;1.40;99.90;;;;;;5026802;28;20041;-70
2022/04/02 05:28:36;;;;;;;16.80;9.63;;;1.40;99.90;;;;;;5026582;28;20212;-70
2022/04/02 05:31:03;;;;;;;15.60;9.75;;;1.40;99.90;;;;;;5025700;28;20309;-70
2022/04/02 05:33:30;;;;;;;20.42;10.30;;;1.30;99.90;;;;;;5041727;28;20044;-69
2022/04/02 05:35:56;;;;;;;17.90;10.77;;;1.30;99.90;;;;;;5025498;28;20072;-69
2022/04/02 05:38:22;;;;;;;15.45;9.73;;;1.30;99.90;;;;;;5024863;28;20055;-69
2022/04/02 05:40:48;;;;;;;15.35;10.45;;;1.40;99.90;;;;;;5008692;28;20022;-70
2022/04/02 05:43:13;;;;;;;18.73;9.90;;;1.30;99.90;;;;;;5025122;28;20096;-69
2022/04/02 05:45:39;;;;;;;17.45;10.57;;;1.30;99.90;;;;;;5024593;28;20052;-69
2022/04/02 05:48:05;;;;;;;23.60;10.93;;;1.30;99.90;;;;;;4992712;28;20029;-69
2022/04/02 05:50:31;;;;;;;17.92;9.70;;;1.30;99.90;;;;;;5025238;28;20279;-69
2022/04/02 05:52:57;;;;;;;19.58;10.88;;;1.30;99.90;;;;;;5024684;28;20029;-69
2022/04/02 05:55:23;;;;;;;18.42;9.98;;;1.30;99.90;;;;;;5041344;28;20021;-70
2022/04/02 05:57:49;;;;;;;21.08;10.32;;;1.30;99.90;;;;;;5024297;28;20194;-71
2022/04/02 06:00:17;;;;;;;23.20;10.35;;;1.40;99.90;;;;;;5024415;28;20017;-71
2022/04/02 06:02:43;;;;;;;18.20;10.15;;;1.40;99.90;;;;;;5024903;28;20300;-70
2022/04/02 06:05:13;;;;;;;19.70;10.70;;;1.50;99.90;;;;;;5008419;28;20021;-70
2022/04/02 06:07:39;;;;;;;20.77;10.63;;;1.40;99.90;;;;;;5008856;28;20026;-70
2022/04/02 06:10:06;;;;;;;17.45;10.77;;;1.40;99.90;;;;;;5024672;28;20041;-70
2022/04/02 06:12:32;;;;;;;21.65;10.77;;;1.40;99.90;;;;;;5024299;28;20025;-71
2022/04/02 06:14:59;;;;;;;15.25;9.80;;;1.40;99.90;;;;;;5024667;28;20052;-71
2022/04/02 06:17:26;;;;;;;19.27;10.13;;;1.40;99.90;;;;;;5041148;28;20209;-69
2022/04/02 06:19:52;;;;;;;19.05;10.70;;;1.40;99.90;;;;;;5024579;28;20320;-71
2022/04/02 06:22:18;;;;;;;16.70;10.50;;;1.40;99.90;;;;;;5025884;28;20029;-71
2022/04/02 06:24:44;;;;;;;19.10;10.55;;;1.40;99.90;;;;;;5023793;28;20030;-70
2022/04/02 06:27:10;;;;;;;15.73;10.15;;;1.40;99.90;;;;;;5024451;28;20148;-70
2022/04/02 06:29:35;;;;;;;18.15;10.52;;;1.50;99.90;;;;;;5024279;28;20017;-71
2022/04/02 06:32:01;;;;;;;16.27;10.40;;;1.50;99.90;;;;;;5024105;28;20217;-71
2022/04/02 06:34:27;;;;;;;17.85;10.38;;;1.60;99.90;;;;;;5023586;28;20217;-71
2022/04/02 06:36:54;;;;;;;15.55;9.90;;;1.60;99.90;;;;;;5007650;28;20026;-70
2022/04/02 06:39:20;;;;;;;18.27;10.77;;;1.70;99.90;;;;;;5023356;28;20024;-70
2022/04/02 06:41:46;;;;;;;18.17;10.50;;;1.80;99.90;;;;;;5023552;28;20021;-71
2022/04/02 06:44:11;;;;;;;16.52;10.30;;;1.80;99.90;;;;;;4991189;28;20060;-72
2022/04/02 06:46:37;;;;;;;18.48;10.48;;;1.90;99.90;;;;;;5023195;28;20073;-71
2022/04/02 06:49:04;;;;;;;18.55;10.40;;;2.00;99.90;;;;;;5023605;28;20057;-70
2022/04/02 06:51:30;;;;;;;19.77;9.80;;;2.00;99.90;;;;;;5023865;28;20061;-71
2022/04/02 06:53:56;;;;;;;20.75;10.30;;;2.10;99.90;;;;;;5023731;28;20018;-70
2022/04/02 06:56:21;;;;;;;18.33;10.27;;;2.30;99.90;;;;;;4991005;28;20309;-70
2022/04/02 06:58:47;;;;;;;18.88;9.90;;;2.40;99.90;;;;;;4991276;28;20018;-70
2022/04/02 07:01:13;;;;;;;21.45;10.63;;;2.60;99.90;;;;;;5024640;28;20036;-70
2022/04/02 07:03:39;;;;;;;17.45;10.57;;;2.60;99.90;;;;;;5024875;28;20121;-70
2022/04/02 07:06:04;;;;;;;17.13;9.75;;;2.80;99.90;;;;;;5024577;28;20281;-70
2022/04/02 07:08:31;;;;;;;24.30;9.98;;;2.90;99.90;;;;;;5023278;28;20068;-70
2022/04/02 07:10:57;;;;;;;24.63;10.05;;;3.00;99.90;;;;;;5022812;28;20063;-70
2022/04/02 07:13:24;;;;;;;21.98;8.93;;;3.10;99.90;;;;;;5007429;28;20045;-70
2022/04/02 07:15:50;;;;;;;18.73;9.43;;;3.30;99.90;;;;;;5022950;28;20064;-70
2022/04/02 07:18:16;;;;;;;24.13;9.20;;;3.40;99.90;;;;;;5024319;28;20241;-70
2022/04/02 07:20:41;;;;;;;18.70;8.77;;;3.60;99.90;;;;;;5024837;28;20022;-70
2022/04/02 07:23:09;;;;;;;19.48;8.65;;;3.70;99.90;;;;;;5024187;28;20072;-70
2022/04/02 07:25:38;;;;;;;12.20;7.35;;;3.80;99.90;;;;;;5023388;28;20045;-71
2022/04/02 07:28:05;;;;;;;21.70;9.40;;;3.90;99.90;;;;;;5007152;28;20289;-69
2022/04/02 07:30:33;;;;;;;16.63;7.68;;;4.00;99.90;;;;;;5007015;28;20044;-70
2022/04/02 07:32:59;;;;;;;14.80;6.97;;;4.00;99.80;;;;;;5007031;28;20040;-71
2022/04/02 07:35:27;;;;;;;9.98;6.82;;;4.30;99.60;;;;;;5022917;28;20025;-69
2022/04/02 07:38:20;;;;;;;10.38;6.30;;;4.40;99.30;;;;;;5023001;28;20087;-71
2022/04/02 07:41:26;;;;;;;13.48;7.20;;;4.50;99.00;;;;;;5008187;28;20042;-69
2022/04/02 07:43:58;;;;;;;10.32;6.95;;;4.50;98.80;;;;;;4998626;28;20022;-70
2022/04/02 07:46:29;;;;;;;11.68;6.70;;;4.50;98.40;;;;;;5022142;28;20041;-70
2022/04/02 07:48:57;;;;;;;14.77;7.30;;;4.60;98.20;;;;;;5007080;28;20329;-69
2022/04/02 07:51:30;;;;;;;20.27;9.32;;;4.70;98.20;;;;;;4990554;28;20033;-70
2022/04/02 07:54:01;;;;;;;14.40;7.47;;;4.70;98.00;;;;;;4991317;28;20099;-70
2022/04/02 07:56:30;;;;;;;14.82;7.40;;;4.70;97.80;;;;;;4990681;28;20029;-70
2022/04/02 07:59:00;;;;;;;13.65;6.35;;;4.70;98.00;;;;;;5006835;28;20313;-71
2022/04/02 08:01:27;;;;;;;15.18;7.13;;;4.60;98.10;;;;;;5006434;28;20097;-70
2022/04/02 08:03:54;;;;;;;20.67;6.25;;;4.80;97.80;;;;;;5023005;28;20062;-70
2022/04/02 08:06:20;;;;;;;9.82;5.95;;;4.80;97.30;;;;;;5006561;28;20061;-70
2022/04/02 08:08:46;;;;;;;8.20;4.78;;;4.90;97.20;;;;;;5022391;28;20034;-70
2022/04/02 08:11:12;;;;;;;8.43;5.75;;;4.90;96.60;;;;;;4990125;28;20017;-70
2022/04/02 08:13:41;;;;;;;11.50;5.60;;;4.90;96.60;;;;;;5023712;28;20085;-71
2022/04/02 08:16:08;;;;;;;11.82;5.10;;;5.00;96.70;;;;;;4990351;28;20033;-70
2022/04/02 08:18:34;;;;;;;14.93;5.68;;;5.00;96.50;;;;;;4990435;28;20028;-69
2022/04/02 08:21:01;;;;;;;7.80;5.97;;;4.90;96.50;;;;;;5005719;28;20088;-70
2022/04/02 08:23:31;;;;;;;7.75;3.97;;;4.90;96.60;;;;;;5023442;28;20089;-70
2022/04/02 08:26:37;;;;;;;4.68;3.00;;;5.00;96.00;;;;;;5022355;28;20040;-70
2022/04/02 08:29:27;;;;;;;8.55;2.83;;;4.90;95.50;;;;;;5011833;28;20040;-69
2022/04/02 08:32:16;;;;;;;5.30;2.63;;;5.10;95.40;;;;;;5009124;28;20120;-71
2022/04/02 08:35:14;;;;;;;6.43;2.88;;;5.20;95.00;;;;;;5022372;28;20068;-71
2022/04/02 08:38:19;;;;;;;4.07;2.20;;;5.30;94.90;;;;;;5022372;28;20038;-69
2022/04/02 08:41:07;;;;;;;6.05;2.45;;;5.30;94.50;;;;;;4995662;28;20026;-70
2022/04/02 08:44:11;;;;;;;3.42;2.40;;;5.50;94.60;;;;;;5006132;28;20224;-70
2022/04/02 08:46:55;;;;;;;4.70;2.50;;;5.50;94.60;;;;;;5008072;28;20072;-70
2022/04/02 08:49:42;;;;;;;4.45;2.35;;;5.50;94.50;;;;;;5022533;28;20133;-70
2022/04/02 08:52:21;;;;;;;4.88;3.22;;;5.60;94.20;;;;;;5008794;28;20026;-71
2022/04/02 08:55:13;;;;;;;4.80;2.25;;;5.80;94.20;;;;;;4989977;28;20039;-72
2022/04/02 08:58:02;;;;;;;5.90;2.30;;;5.80;93.60;;;;;;5009519;28;20021;-71
2022/04/02 09:00:35;;;;;;;4.97;2.60;;;5.90;93.60;;;;;;5022361;28;20198;-70
2022/04/02 09:03:41;;;;;;;5.20;2.47;;;6.00;93.30;;;;;;5022141;28;20101;-70
2022/04/02 09:06:46;;;;;;;4.55;2.60;;;6.10;92.90;;;;;;4997334;28;20033;-70
2022/04/02 09:09:36;;;;;;;4.55;2.75;;;6.30;93.00;;;;;;5011335;28;20056;-71
2022/04/02 09:12:36;;;;;;;7.45;3.00;;;6.50;92.60;;;;;;5008517;28;20028;-70
2022/04/02 09:15:24;;;;;;;6.72;2.85;;;6.70;92.30;;;;;;5022541;28;20014;-71
2022/04/02 09:18:26;;;;;;;7.05;3.50;;;7.00;91.70;;;;;;5021879;28;20025;-71
2022/04/02 09:20:56;;;;;;;5.50;3.40;;;7.00;91.90;;;;;;5022475;28;20017;-71
2022/04/02 09:23:43;;;;;;;5.13;3.13;;;7.20;91.90;;;;;;5021334;28;20103;-71
2022/04/02 09:26:48;;;;;;;5.70;3.10;;;7.20;91.90;;;;;;5023102;28;20037;-70
2022/04/02 09:29:16;;;;;;;8.77;3.75;;;7.20;91.70;;;;;;5011058;28;20021;-70
2022/04/02 09:32:17;;;;;;;8.88;3.55;;;7.10;91.90;;;;;;5021950;28;20064;-71
2022/04/02 09:35:12;;;;;;;6.45;3.40;;;7.10;92.20;;;;;;5025666;28;20068;-70
2022/04/02 09:38:18;;;;;;;11.13;3.53;;;7.20;91.70;;;;;;4996265;28;20022;-71
2022/04/02 09:40:48;;;;;;;6.53;3.63;;;7.10;91.80;;;;;;5013702;28;20211;-70
2022/04/02 09:43:32;;;;;;;7.72;4.10;;;7.00;91.90;;;;;;4991690;28;20026;-71
2022/04/02 09:46:22;;;;;;;5.78;3.92;;;7.10;91.90;;;;;;5008408;28;20228;-71
2022/04/02 09:48:58;;;;;;;7.55;4.40;;;7.10;91.90;;;;;;5026230;28;20030;-71
2022/04/02 09:51:31;;;;;;;6.28;4.18;;;7.10;91.80;;;;;;5024941;28;20065;-71
2022/04/02 09:54:13;;;;;;;9.77;4.47;;;7.30;91.70;;;;;;5008733;28;20025;-71
2022/04/02 09:56:45;;;;;;;9.40;4.55;;;7.40;91.50;;;;;;5009977;28;20030;-71
2022/04/02 09:59:37;;;;;;;7.22;4.30;;;7.30;91.60;;;;;;5009220;28;20025;-72
2022/04/02 10:02:05;;;;;;;8.07;3.92;;;7.30;91.70;;;;;;4995874;28;20021;-71
2022/04/02 10:04:40;;;;;;;9.70;3.80;;;7.40;91.70;;;;;;5024765;28;20036;-71
2022/04/02 10:07:16;;;;;;;8.98;4.13;;;7.50;91.50;;;;;;5025439;28;20026;-70
2022/04/02 10:09:46;;;;;;;7.35;4.75;;;7.60;91.40;;;;;;5024374;28;20030;-72
2022/04/02 10:12:14;;;;;;;6.72;4.43;;;7.60;91.00;;;;;;5007918;28;20217;-70
2022/04/02 10:14:42;;;;;;;7.72;4.47;;;7.50;91.10;;;;;;5025904;28;20384;-70
2022/04/02 10:17:08;;;;;;;9.52;4.70;;;7.60;91.00;;;;;;5025874;28;20032;-70
2022/04/02 10:19:39;;;;;;;8.60;4.32;;;7.50;91.20;;;;;;4991837;28;20017;-71
2022/04/02 10:22:08;;;;;;;7.05;4.78;;;7.40;91.40;;;;;;4992208;28;20021;-70
2022/04/02 10:24:37;;;;;;;11.77;5.97;;;7.40;91.70;;;;;;5021357;28;20132;-70
2022/04/02 10:27:07;;;;;;;7.75;4.13;;;7.40;91.60;;;;;;5004427;28;20030;-70
2022/04/02 10:30:11;;;;;;;8.82;6.50;;;7.70;91.50;;;;;;4988624;28;20037;-69
2022/04/02 10:33:26;;;;;;;9.48;4.40;;;7.90;91.10;;;;;;4991177;28;20317;-71
2022/04/02 10:35:45;;;;;;;12.57;7.60;;;7.80;90.70;;;;;;5011187;28;20037;-73
2022/04/02 10:38:28;;;;;;;6.68;4.85;;;7.70;90.50;;;;;;5024933;28;20077;-70
2022/04/02 10:40:56;;;;;;;10.48;4.32;;;7.90;90.60;;;;;;5007518;28;20097;-70
2022/04/02 10:43:26;;;;;;;34.40;19.15;;;8.00;90.40;;;;;;5021894;28;20351;-71
2022/04/02 10:45:51;;;;;;;46.35;23.23;;;8.10;90.30;;;;;;5024072;28;20048;-70
2022/04/02 10:48:27;;;;;;;15.25;7.03;;;8.00;88.40;;;;;;5024990;28;20030;-70
2022/04/02 10:50:55;;;;;;;8.70;5.55;;;8.10;88.70;;;;;;5008001;28;20245;-71
2022/04/02 10:53:22;;;;;;;12.38;4.90;;;8.30;87.60;;;;;;5007471;28;20351;-70
2022/04/02 10:55:53;;;;;;;17.45;13.00;;;8.40;87.60;;;;;;5007499;28;20328;-72
2022/04/02 10:58:21;;;;;;;7.32;3.42;;;8.40;87.70;;;;;;5007606;28;20024;-71
2022/04/02 11:00:47;;;;;;;6.03;3.70;;;8.40;87.20;;;;;;5023908;28;20024;-71
2022/04/02 11:03:46;;;;;;;5.75;3.10;;;8.50;86.70;;;;;;5024716;28;20025;-71
2022/04/02 11:06:42;;;;;;;7.00;3.17;;;8.70;86.40;;;;;;5023443;28;20034;-73
2022/04/02 11:09:36;;;;;;;5.80;4.03;;;9.10;84.40;;;;;;4995191;28;20084;-71
2022/04/02 11:12:06;;;;;;;7.30;3.75;;;9.20;83.50;;;;;;5023621;28;20029;-72
2022/04/02 11:14:45;;;;;;;7.70;3.08;;;9.50;83.70;;;;;;5007308;28;20052;-72
2022/04/02 11:17:30;;;;;;;4.82;2.60;;;10.00;82.00;;;;;;5007090;28;20045;-72
2022/04/02 11:20:03;;;;;;;5.07;2.78;;;9.90;81.60;;;;;;4991438;28;20022;-70
2022/04/02 11:22:36;;;;;;;9.05;5.78;;;10.00;81.60;;;;;;5019900;28;20302;-70
2022/04/02 11:25:07;;;;;;;5.72;3.25;;;10.20;81.20;;;;;;5003749;28;20026;-73
2022/04/02 11:27:37;;;;;;;4.57;2.85;;;10.30;81.20;;;;;;4987885;28;20026;-72
2022/04/02 11:30:09;;;;;;;3.65;2.05;;;10.50;79.90;;;;;;5003555;28;20025;-72
2022/04/02 11:32:41;;;;;;;;;;;10.50;78.10;;;;;;5004057;28;20030;-72
2022/04/02 11:35:10;;;;;;;6.88;3.10;;;10.30;78.70;;;;;;5015582;28;19901;-72
2022/04/02 11:37:57;;;;;;;4.25;2.30;;;10.00;79.20;;;;;;5006557;28;20026;-72
2022/04/02 11:40:27;;;;;;;3.58;2.30;;;9.80;79.60;;;;;;5022540;28;20064;-70
2022/04/02 11:42:54;;;;;;;4.10;2.30;;;9.80;78.00;;;;;;5022043;28;20014;-71
2022/04/02 11:45:20;;;;;;;4.70;2.42;;;9.80;77.80;;;;;;5022400;28;20247;-72
2022/04/02 11:47:49;;;;;;;3.17;2.35;;;9.80;79.40;;;;;;5006304;28;20100;-71
2022/04/02 11:50:25;;;;;;;4.65;2.47;;;9.80;80.10;;;;;;5022823;28;20064;-71
2022/04/02 11:52:55;;;;;;;6.90;2.60;;;10.00;79.00;;;;;;5006652;28;20017;-72
2022/04/02 11:55:22;;;;;;;3.63;2.05;;;10.30;78.60;;;;;;5006870;28;20032;-73
2022/04/02 11:58:08;;;;;;;3.08;2.10;;;10.40;77.40;;;;;;5006709;28;20033;-71
2022/04/02 12:00:37;;;;;;;5.82;3.33;;;10.10;75.00;;;;;;4992805;28;20025;-71
2022/04/02 12:03:06;;;;;;;3.85;2.25;;;9.90;75.60;;;;;;4990535;28;20018;-71
2022/04/02 12:05:35;;;;;;;3.40;1.88;;;9.70;76.30;;;;;;5022546;28;20026;-71
2022/04/02 12:08:02;;;;;;;5.25;1.73;;;9.80;75.80;;;;;;5006391;28;20058;-72
2022/04/02 12:10:28;;;;;;;4.00;2.17;;;9.70;75.70;;;;;;5022333;28;20041;-72
2022/04/02 12:12:58;;;;;;;5.40;2.17;;;9.70;76.20;;;;;;5006337;28;20252;-71
2022/04/02 12:15:24;;;;;;;4.68;2.20;;;9.60;77.10;;;;;;4990826;28;20317;-72
2022/04/02 12:17:53;;;;;;;2.85;1.70;;;9.80;76.60;;;;;;4990122;28;20064;-71
2022/04/02 12:20:27;;;;;;;3.88;1.80;;;9.90;75.60;;;;;;5006254;28;20022;-71
2022/04/02 12:23:17;;;;;;;8.82;4.22;;;10.00;73.80;;;;;;5023112;28;20309;-71
2022/04/02 12:25:45;;;;;;;7.03;3.13;;;10.00;74.00;;;;;;4990429;28;20033;-70
2022/04/02 12:28:16;;;;;;;4.60;2.20;;;9.70;75.50;;;;;;5006177;28;20284;-68
2022/04/02 12:30:47;;;;;;;5.82;2.60;;;9.40;77.00;;;;;;5022537;28;20085;-72
2022/04/02 12:33:18;;;;;;;4.38;2.65;;;9.20;78.10;;;;;;4990755;28;20056;-71
2022/04/02 12:35:55;;;;;;;5.40;2.72;;;9.10;79.00;;;;;;5023305;28;20036;-70
2022/04/02 12:38:25;;;;;;;8.77;3.80;;;9.00;79.90;;;;;;5023633;28;20021;-71
2022/04/02 12:40:51;;;;;;;5.80;2.85;;;8.90;82.00;;;;;;5005876;28;20081;-71
2022/04/02 12:43:25;;;;;;;6.88;3.50;;;8.80;82.50;;;;;;5022031;28;20018;-70
2022/04/02 12:45:51;;;;;;;4.90;3.03;;;8.70;83.20;;;;;;5020469;28;20052;-72
2022/04/02 12:48:18;;;;;;;5.25;3.53;;;8.70;83.20;;;;;;5022441;28;20030;-73
2022/04/02 12:50:58;;;;;;;4.95;3.20;;;8.90;82.50;;;;;;5023227;28;20064;-71
2022/04/02 12:53:36;;;;;;;6.97;3.15;;;9.00;81.60;;;;;;5005952;28;20018;-72
2022/04/02 12:56:04;;;;;;;64.03;28.58;;;9.10;81.10;;;;;;4989958;28;20017;-72
2022/04/02 12:58:38;;;;;;;12.88;5.60;;;9.10;80.50;;;;;;5006242;28;20076;-72
2022/04/02 13:01:29;;;;;;;4.80;3.00;;;9.20;80.50;;;;;;5006722;28;20021;-72
2022/04/02 13:04:07;;;;;;;9.68;4.30;;;9.30;80.00;;;;;;5009060;28;20025;-71
2022/04/02 13:06:47;;;;;;;17.70;6.88;;;9.40;79.80;;;;;;5005967;28;20107;-71
2022/04/02 13:09:19;;;;;;;11.35;5.85;;;9.60;79.20;;;;;;5008951;28;20032;-71
2022/04/02 13:11:56;;;;;;;9.18;3.50;;;9.60;77.70;;;;;;4992828;28;20093;-72
2022/04/02 13:14:42;;;;;;;8.10;2.60;;;9.70;76.90;;;;;;5010019;28;20324;-72